Casper, WY

6:00 AM MDT on April 24, 2017 (GMT -0600)
Natrona County International | | Change Station

Elev 5348 ft 42.91 °N, 106.46 °W | Updated 7 minutes ago

Clear
Clear
32 °F
Feels Like 26 °F
N
6
Wind Variable Wind from West

Today
High -- | Low -- °F
--% Chance of Precip.
Yesterday
High -- | Low -- °F
Precip. -- in
Pressure 29.64 in
Visibility 10.0 miles
Clouds Clear
Windchill 26 °F
Dew Point 31 °F
Humidity 96%
Rainfall 0.00 in
Snow Depth Not available.
6:09 AM 7:59 PM
Waning Crescent, 6% visible
METAR KCPR 241153Z 26005KT 10SM CLR 00/M01 A2971 RMK AO2 SLP037 T00001006 10111 20000 50006
Pressure 29.64 in
Visibility 10.0 miles
Clouds Clear
Windchill 26 °F
Dew Point 31 °F
Humidity 96%
Rainfall 0.00 in
Snow Depth Not available.
6:09 AM 7:59 PM
Waning Crescent, 6% visible
METAR KCPR 241153Z 26005KT 10SM CLR 00/M01 A2971 RMK AO2 SLP037 T00001006 10111 20000 50006

Get Severe Weather Alerts

Thanks for signing up!

Be on the lookout for a verification email in your inbox.

You'll start receiving the daily forecast at 8 AM.

×

10-Day Weather Forecast

Almanac

Astronomy

Apr. 24, 2017 Rise Set
Actual Time
Civil Twilight
Nautical Twilight
Astronomical Twilight
Moon
Length of Visible Light
Length of Day
Tomorrow will be .
, % of the Moon is Illuminated

Today's Extremes

State Highs State Lows

Community

WunderPhotos

WunderBlog® & News

Nearby

Air Quality

  Air Quality AQ Index Pollutant
Not available.

Snow Depth

Station Depth Elevation

Earthquake Activity

City Distance Mag. Time & Date
Minimum magnitude displayed is 2.5.

Coastal Water Temperatures

Place Temperature

Stations

Nearby Weather Stations

Station Location Temp. Windchill Dew Point Humidity Wind Precip. Elev Updated Type
                   

Watches & Warnings

There are currently no watches in effect.